Time;durP1;ratioP1;P1;durP2;ratioP2;P2;SDS_P1;SDS_P2;PMS_P1;PMS_P2;Temp;Humidity;BMP_temperature;BMP_pressure;BME280_temperature;BME280_humidity;BME280_pressure;Samples;Min_cycle;Max_cycle;Signal;HPM_P1;HPM_P2
2022/09/06 00:01:09;;;;;;;1.97;1.87;;;21.00;69.70;21.40;96719.00;;;;5085971;28;20310;-83
2022/09/06 00:03:36;;;;;;;1.60;1.50;;;21.00;69.80;21.40;96716.00;;;;5089562;28;20210;-83
2022/09/06 00:06:13;;;;;;;2.00;1.90;;;20.90;70.00;21.40;96718.00;;;;5084681;28;20704;-84
2022/09/06 00:08:43;;;;;;;1.80;1.70;;;21.00;70.30;21.30;96715.00;;;;5091605;28;20749;-83
2022/09/06 00:11:10;;;;;;;2.80;1.80;;;20.90;70.10;21.30;96711.00;;;;5088355;28;20276;-83
2022/09/06 00:13:38;;;;;;;1.93;1.83;;;20.90;70.20;21.30;96714.00;;;;5094805;28;20381;-83
2022/09/06 00:16:10;;;;;;;1.80;1.70;;;20.90;70.20;21.30;96716.00;;;;5094465;28;20282;-83
2022/09/06 00:18:38;;;;;;;1.90;1.80;;;20.80;70.30;21.20;96713.00;;;;5095592;28;20279;-83
2022/09/06 00:21:15;;;;;;;2.03;1.93;;;20.80;70.40;21.20;96712.00;;;;5095729;28;20302;-83
2022/09/06 00:23:42;;;;;;;2.43;2.03;;;20.80;70.40;21.20;96714.00;;;;5093889;28;20336;-83
2022/09/06 00:26:09;;;;;;;3.43;1.90;;;20.70;70.40;21.10;96719.00;;;;5094918;28;20222;-83
2022/09/06 00:28:36;;;;;;;1.90;1.80;;;20.70;71.30;21.10;96717.00;;;;5104705;28;20192;-83
2022/09/06 00:31:11;;;;;;;1.90;1.80;;;20.70;70.60;21.10;96723.00;;;;5085788;28;20312;-83
2022/09/06 00:33:39;;;;;;;2.30;1.63;;;20.70;70.80;21.10;96716.00;;;;5085983;28;20295;-83
2022/09/06 00:36:08;;;;;;;1.97;1.87;;;20.60;70.60;21.10;96720.00;;;;5082224;28;20288;-83
2022/09/06 00:38:36;;;;;;;2.10;1.90;;;20.70;70.90;21.10;96719.00;;;;5089174;28;20314;-83
2022/09/06 00:41:04;;;;;;;1.73;1.63;;;20.60;70.90;21.00;96732.00;;;;5094722;28;20376;-83
2022/09/06 00:43:31;;;;;;;1.70;1.60;;;20.60;71.00;21.00;96718.00;;;;5094326;28;20253;-83
2022/09/06 00:46:00;;;;;;;1.80;1.70;;;20.60;71.00;21.00;96717.00;;;;5087932;28;20211;-83
2022/09/06 00:48:29;;;;;;;1.60;1.50;;;20.60;70.90;21.00;96722.00;;;;5095852;28;20594;-83
2022/09/06 00:51:04;;;;;;;1.83;1.73;;;20.60;71.10;21.00;96717.00;;;;5091466;28;20231;-83
2022/09/06 00:53:32;;;;;;;1.73;1.63;;;20.60;71.30;21.00;96720.00;;;;5097539;28;21064;-83
2022/09/06 00:56:00;;;;;;;1.90;1.80;;;20.50;71.20;20.90;96718.00;;;;5096275;28;20684;-84
2022/09/06 00:58:28;;;;;;;1.70;1.60;;;20.50;71.40;20.90;96721.00;;;;5092741;28;20231;-84
2022/09/06 01:00:55;;;;;;;1.80;1.70;;;20.50;71.50;20.90;96719.00;;;;5093502;28;20258;-84
2022/09/06 01:03:25;;;;;;;2.03;1.83;;;20.50;71.40;20.90;96721.00;;;;5090901;28;20728;-83
2022/09/06 01:06:12;;;;;;;1.93;1.83;;;20.50;71.40;20.90;96717.00;;;;5092924;28;20708;-83
2022/09/06 01:08:59;;;;;;;1.80;1.70;;;20.50;71.70;20.80;96720.00;;;;5092185;28;20653;-83
2022/09/06 01:11:58;;;;;;;2.40;1.80;;;20.50;72.40;20.80;96723.00;;;;5092327;28;20239;-84
2022/09/06 01:14:45;;;;;;;2.27;2.07;;;20.40;71.80;20.80;96721.00;;;;5092778;28;20303;-83
2022/09/06 01:17:28;;;;;;;3.30;2.00;;;20.40;71.60;20.80;96724.00;;;;5092964;28;20191;-83
2022/09/06 01:20:34;;;;;;;2.67;1.90;;;20.40;71.60;20.70;96728.00;;;;5087993;28;20219;-83
2022/09/06 01:23:57;;;;;;;2.00;1.90;;;20.40;71.70;20.70;96723.00;;;;5086555;28;20629;-83
2022/09/06 01:27:19;;;;;;;2.00;1.90;;;20.30;71.60;20.60;96734.00;;;;5089034;28;20234;-83
2022/09/06 01:29:51;;;;;;;1.80;1.70;;;20.30;71.60;20.60;96734.00;;;;5104558;28;20361;-83
2022/09/06 01:32:28;;;;;;;1.90;1.80;;;20.20;71.20;20.60;96735.00;;;;5094031;28;20207;-83
2022/09/06 01:35:06;;;;;;;2.20;2.00;;;20.20;71.40;20.50;96730.00;;;;5080574;28;20645;-83
2022/09/06 01:37:34;;;;;;;2.73;1.97;;;20.20;71.50;20.50;96730.00;;;;5093272;28;20747;-83
2022/09/06 01:40:01;;;;;;;1.90;1.80;;;20.20;71.40;20.50;96731.00;;;;5092730;28;20188;-82
2022/09/06 01:42:32;;;;;;;3.20;2.10;;;20.10;71.50;20.50;96731.00;;;;5089110;28;20263;-82
2022/09/06 01:45:05;;;;;;;2.77;2.57;;;20.10;71.70;20.50;96735.00;;;;5092252;28;20313;-83
2022/09/06 01:47:45;;;;;;;2.10;1.90;;;20.10;72.00;20.50;96728.00;;;;5079541;28;20297;-82
2022/09/06 01:50:54;;;;;;;2.37;2.07;;;20.10;72.20;20.40;96729.00;;;;5100041;28;20219;-83
2022/09/06 01:53:50;;;;;;;2.30;2.10;;;20.10;72.50;20.40;96732.00;;;;5101096;28;20286;-84
2022/09/06 01:56:37;;;;;;;2.20;2.00;;;20.00;72.30;20.40;96740.00;;;;5093270;28;20710;-83
2022/09/06 01:59:36;;;;;;;2.67;2.30;;;20.00;72.10;20.30;96730.00;;;;5085954;28;20687;-82
2022/09/06 02:02:10;;;;;;;2.40;2.30;;;20.00;72.30;20.30;96724.00;;;;5091956;28;20286;-83
2022/09/06 02:04:46;;;;;;;2.77;2.40;;;20.00;72.10;20.30;96729.00;;;;5087104;28;20254;-83
2022/09/06 02:07:21;;;;;;;2.10;2.00;;;19.90;72.10;20.30;96734.00;;;;5087554;28;20263;-83
2022/09/06 02:09:55;;;;;;;2.30;2.10;;;19.90;72.00;20.20;96729.00;;;;5095352;28;20274;-83
2022/09/06 02:12:26;;;;;;;2.70;2.13;;;19.90;72.00;20.20;96733.00;;;;5094592;28;20264;-83
2022/09/06 02:15:00;;;;;;;2.40;2.30;;;19.80;72.00;20.20;96720.00;;;;5094040;28;20259;-82
2022/09/06 02:17:34;;;;;;;2.47;2.27;;;19.80;72.10;20.10;96720.00;;;;5083836;28;20228;-82
2022/09/06 02:20:07;;;;;;;2.60;2.40;;;19.80;72.20;20.10;96716.00;;;;5088108;28;20279;-83
2022/09/06 02:22:44;;;;;;;3.23;2.70;;;19.80;72.10;20.10;96726.00;;;;5090047;28;20249;-83
2022/09/06 02:25:18;;;;;;;2.53;2.37;;;19.70;72.10;20.00;96725.00;;;;5097857;28;20703;-83
2022/09/06 02:27:46;;;;;;;2.57;2.47;;;19.70;72.10;20.00;96716.00;;;;5084725;28;20182;-82
2022/09/06 02:30:13;;;;;;;2.50;2.30;;;19.70;72.20;20.00;96721.00;;;;5076520;28;20281;-83
2022/09/06 02:32:51;;;;;;;2.57;2.37;;;19.70;72.20;19.90;96721.00;;;;5081076;28;20733;-83
2022/09/06 02:35:18;;;;;;;2.60;2.40;;;19.60;72.30;19.90;96722.00;;;;5077152;28;20287;-82
2022/09/06 02:37:46;;;;;;;2.50;2.40;;;19.60;72.20;19.90;96723.00;;;;5094777;28;20238;-83
2022/09/06 02:40:13;;;;;;;2.53;2.40;;;19.60;73.10;19.90;96725.00;;;;5084089;28;20240;-84
2022/09/06 02:42:41;;;;;;;2.87;2.67;;;19.50;72.50;19.90;96724.00;;;;5084788;28;20215;-83
2022/09/06 02:45:09;;;;;;;3.30;2.97;;;19.50;72.80;19.90;96714.00;;;;5089696;28;20211;-82
2022/09/06 02:47:36;;;;;;;2.50;2.40;;;19.50;72.90;19.90;96712.00;;;;5093812;28;20286;-83
2022/09/06 02:50:07;;;;;;;2.70;2.50;;;19.50;73.00;19.90;96711.00;;;;5089738;28;20295;-82
2022/09/06 02:52:34;;;;;;;2.80;2.60;;;19.50;73.10;19.80;96714.00;;;;5076564;28;20308;-83
2022/09/06 02:55:01;;;;;;;2.90;2.60;;;19.50;73.10;19.80;96709.00;;;;5092388;28;20291;-84
2022/09/06 02:57:28;;;;;;;2.80;2.60;;;19.50;73.10;19.80;96718.00;;;;5085950;28;20270;-83
2022/09/06 02:59:55;;;;;;;3.07;2.87;;;19.40;73.20;19.80;96715.00;;;;5074018;28;20235;-83
2022/09/06 03:02:22;;;;;;;3.13;2.83;;;19.40;73.40;19.80;96712.00;;;;5072009;28;20777;-83
2022/09/06 03:04:49;;;;;;;3.43;3.23;;;19.40;73.50;19.80;96714.00;;;;5077448;28;20638;-83
2022/09/06 03:07:18;;;;;;;3.23;3.00;;;19.40;73.60;19.80;96709.00;;;;5093347;28;20229;-83
2022/09/06 03:09:45;;;;;;;6.17;3.20;;;19.40;73.80;19.80;96712.00;;;;5093231;28;20708;-84
2022/09/06 03:12:12;;;;;;;3.33;3.10;;;19.40;73.80;19.80;96712.00;;;;5092773;28;20294;-83
2022/09/06 03:14:40;;;;;;;3.50;3.20;;;19.40;73.80;19.80;96708.00;;;;5092985;28;20285;-83
2022/09/06 03:17:07;;;;;;;5.03;3.77;;;19.40;73.70;19.80;96701.00;;;;5091903;28;20213;-82
2022/09/06 03:19:34;;;;;;;3.33;3.10;;;19.40;73.70;19.70;96710.00;;;;5092440;28;20285;-83
2022/09/06 03:22:01;;;;;;;2.93;2.73;;;19.40;73.70;19.70;96712.00;;;;5088856;28;20219;-83
2022/09/06 03:24:29;;;;;;;3.07;2.87;;;19.40;73.80;19.70;96710.00;;;;5092515;28;20310;-83
2022/09/06 03:26:57;;;;;;;3.00;2.80;;;19.40;74.40;19.70;96713.00;;;;5092342;28;20191;-83
2022/09/06 03:29:24;;;;;;;3.47;3.27;;;19.40;73.70;19.70;96717.00;;;;5092562;28;20290;-82
2022/09/06 03:31:51;;;;;;;3.27;3.07;;;19.40;73.60;19.70;96712.00;;;;5091905;28;20251;-83
2022/09/06 03:34:18;;;;;;;3.80;3.53;;;19.30;73.50;19.70;96715.00;;;;5090403;28;20619;-83
2022/09/06 03:36:46;;;;;;;3.17;2.97;;;19.30;73.50;19.70;96710.00;;;;5089475;28;20203;-83
2022/09/06 03:39:13;;;;;;;3.30;3.10;;;19.30;73.50;19.60;96712.00;;;;5090422;28;20282;-83
2022/09/06 03:41:41;;;;;;;3.33;3.13;;;19.30;73.50;19.60;96714.00;;;;5085905;28;20258;-83
2022/09/06 03:44:08;;;;;;;3.10;2.90;;;19.30;73.50;19.60;96708.00;;;;5091059;28;20319;-82
2022/09/06 03:46:36;;;;;;;3.30;3.10;;;19.20;73.30;19.60;96706.00;;;;5093663;28;20671;-82
2022/09/06 03:49:03;;;;;;;3.77;3.53;;;19.20;73.30;19.60;96701.00;;;;5092059;28;20270;-83
2022/09/06 03:51:30;;;;;;;3.50;3.20;;;19.20;73.40;19.60;96698.00;;;;5095178;28;20723;-82
2022/09/06 03:53:57;;;;;;;3.20;3.00;;;19.20;73.70;19.60;96701.00;;;;5090549;28;20282;-82
2022/09/06 03:56:25;;;;;;;3.43;3.23;;;19.20;73.90;19.60;96694.00;;;;5089483;28;20282;-83
2022/09/06 03:58:53;;;;;;;3.57;3.27;;;19.20;73.90;19.60;96702.00;;;;5094075;28;20211;-83
2022/09/06 04:01:21;;;;;;;3.87;3.57;;;19.20;74.00;19.60;96694.00;;;;5102357;22;20287;-82
2022/09/06 04:03:48;;;;;;;3.93;3.40;;;19.20;74.00;19.60;96695.00;;;;5101816;28;20194;-79
2022/09/06 04:06:15;;;;;;;3.20;3.00;;;19.20;73.90;19.50;96695.00;;;;5106256;28;20256;-78
2022/09/06 04:08:42;;;;;;;3.40;3.20;;;19.20;73.90;19.50;96697.00;;;;5103630;28;20234;-79
2022/09/06 04:11:13;;;;;;;3.60;3.40;;;19.10;73.80;19.50;96686.00;;;;5086309;28;20211;-77
2022/09/06 04:13:41;;;;;;;3.93;3.63;;;19.10;73.90;19.50;96689.00;;;;5086629;28;20268;-78
2022/09/06 04:16:09;;;;;;;3.90;3.70;;;19.10;74.00;19.50;96689.00;;;;5083877;28;20192;-77
2022/09/06 04:18:36;;;;;;;4.30;3.90;;;19.10;74.00;19.50;96691.00;;;;5082336;28;20200;-77
2022/09/06 04:21:04;;;;;;;4.03;3.60;;;19.10;74.00;19.40;96692.00;;;;5086726;28;20884;-78
2022/09/06 04:23:32;;;;;;;4.17;3.87;;;19.10;73.90;19.40;96701.00;;;;5086149;28;20200;-78
2022/09/06 04:25:59;;;;;;;4.33;4.03;;;19.00;73.90;19.40;96697.00;;;;5086528;28;20687;-79
2022/09/06 04:28:27;;;;;;;4.30;4.00;;;19.10;73.90;19.40;96696.00;;;;5086465;28;20200;-79
2022/09/06 04:30:56;;;;;;;4.70;4.40;;;19.00;73.90;19.40;96699.00;;;;5082515;28;20216;-78
2022/09/06 04:33:26;;;;;;;4.70;4.13;;;19.00;74.00;19.40;96692.00;;;;5096648;22;20224;-83
2022/09/06 04:35:55;;;;;;;4.43;3.97;;;19.00;74.00;19.30;96700.00;;;;5077171;28;20223;-82
2022/09/06 04:38:23;;;;;;;5.10;4.70;;;19.00;74.00;19.30;96697.00;;;;5074279;28;20249;-84
2022/09/06 04:40:50;;;;;;;4.57;4.23;;;18.90;73.90;19.30;96701.00;;;;5074456;28;20267;-83
2022/09/06 04:43:17;;;;;;;5.17;4.77;;;18.90;74.00;19.30;96689.00;;;;5075153;28;20289;-84
2022/09/06 04:45:45;;;;;;;4.40;4.10;;;18.90;74.10;19.30;96705.00;;;;5078126;28;20244;-84
2022/09/06 04:48:12;;;;;;;4.40;4.00;;;18.90;74.20;19.30;96703.00;;;;5065990;28;20283;-85
2022/09/06 04:50:41;;;;;;;4.57;4.17;;;18.90;74.10;19.30;96701.00;;;;5074121;28;20206;-85
2022/09/06 04:53:09;;;;;;;5.53;4.97;;;18.90;74.20;19.30;96700.00;;;;5061138;28;20220;-84
2022/09/06 04:55:37;;;;;;;4.83;4.43;;;18.90;74.50;19.30;96703.00;;;;5066026;28;20825;-84
2022/09/06 04:58:05;;;;;;;5.70;5.20;;;18.90;74.90;19.30;96712.00;;;;5067621;28;20290;-84
2022/09/06 05:00:34;;;;;;;5.77;5.37;;;18.90;75.10;19.30;96712.00;;;;5051969;28;20228;-85
2022/09/06 05:03:01;;;;;;;6.13;5.63;;;18.90;75.30;19.30;96716.00;;;;5057699;28;20716;-84
2022/09/06 05:05:28;;;;;;;5.90;5.37;;;18.90;75.40;19.30;96724.00;;;;5055298;28;20216;-84
2022/09/06 05:07:57;;;;;;;5.63;5.17;;;18.90;75.50;19.30;96723.00;;;;5050007;28;20227;-84
2022/09/06 05:10:25;;;;;;;5.37;4.97;;;18.90;75.50;19.30;96721.00;;;;5061884;28;20188;-83
2022/09/06 05:12:54;;;;;;;5.73;5.33;;;18.90;75.40;19.30;96724.00;;;;5070519;28;20251;-84
2022/09/06 05:15:22;;;;;;;5.00;4.60;;;18.90;75.40;19.40;96722.00;;;;5073025;28;20875;-84
2022/09/06 05:17:50;;;;;;;5.33;4.93;;;18.90;75.40;19.40;96723.00;;;;5065756;28;20280;-84
2022/09/06 05:20:17;;;;;;;5.23;4.83;;;19.00;75.50;19.40;96726.00;;;;5059809;28;20231;-84
2022/09/06 05:22:53;;;;;;;5.17;4.73;;;19.00;75.60;19.40;96729.00;;;;5066634;28;20330;-85
2022/09/06 05:25:22;;;;;;;5.07;4.67;;;19.00;75.90;19.40;96731.00;;;;5052754;28;20200;-85
2022/09/06 05:27:49;;;;;;;5.63;5.23;;;19.00;75.70;19.40;96736.00;;;;5039303;28;20287;-89
2022/09/06 05:30:17;;;;;;;5.47;5.10;;;19.00;75.70;19.50;96746.00;;;;5053897;28;20228;-89
2022/09/06 05:32:44;;;;;;;5.13;4.73;;;19.00;75.80;19.50;96734.00;;;;5053942;28;20345;-90
2022/09/06 05:35:11;;;;;;;5.33;4.93;;;19.00;76.00;19.60;96727.00;;;;5052438;28;20197;-89
2022/09/06 05:37:39;;;;;;;5.87;5.47;;;19.10;76.20;19.60;96726.00;;;;5040257;28;20686;-89
2022/09/06 05:40:07;;;;;;;5.77;5.37;;;19.10;76.50;19.60;96734.00;;;;5053358;28;20291;-88
2022/09/06 05:42:36;;;;;;;5.70;5.20;;;19.10;76.80;19.70;96740.00;;;;5053421;28;20247;-89
2022/09/06 05:45:05;;;;;;;5.80;5.40;;;19.20;76.90;19.70;96739.00;;;;5052841;28;20212;-89
2022/09/06 05:47:34;;;;;;;6.07;5.57;;;19.20;77.00;19.80;96747.00;;;;5053459;28;20282;-89
2022/09/06 05:50:02;;;;;;;5.80;5.40;;;19.20;77.20;19.80;96746.00;;;;5053038;28;20674;-89
2022/09/06 05:52:29;;;;;;;6.83;6.20;;;19.30;77.40;19.90;96758.00;;;;5042723;28;20228;-89
2022/09/06 05:54:56;;;;;;;6.30;5.90;;;19.30;77.50;19.90;96763.00;;;;5065663;28;20714;-89
2022/09/06 05:57:24;;;;;;;6.13;5.73;;;19.30;77.50;19.90;96765.00;;;;5056436;28;20275;-89
2022/09/06 05:59:53;;;;;;;7.03;6.50;;;19.40;77.60;20.00;96768.00;;;;5053011;28;20287;-89
2022/09/06 06:02:20;;;;;;;8.67;7.70;;;19.40;77.60;20.00;96762.00;;;;5052062;28;20731;-89
2022/09/06 06:04:47;;;;;;;9.40;8.37;;;19.50;77.90;20.10;96769.00;;;;5036856;28;20655;-89
2022/09/06 06:07:15;;;;;;;8.30;7.60;;;19.50;78.10;20.10;96777.00;;;;5033217;28;20205;-89
2022/09/06 06:09:42;;;;;;;7.57;6.87;;;19.60;78.20;20.20;96776.00;;;;5031795;28;20650;-89
2022/09/06 06:12:10;;;;;;;9.27;8.50;;;19.60;78.20;20.20;96790.00;;;;5032792;28;20309;-89
2022/09/06 06:14:37;;;;;;;7.87;7.20;;;19.60;78.40;20.30;96803.00;;;;5032578;28;20208;-90
2022/09/06 06:17:05;;;;;;;7.70;7.10;;;19.70;78.50;20.30;96802.00;;;;5049130;28;20326;-89
2022/09/06 06:19:33;;;;;;;9.07;8.00;;;19.80;78.70;20.40;96809.00;;;;5052593;28;20279;-89
2022/09/06 06:22:00;;;;;;;8.17;7.53;;;19.80;78.80;20.50;96812.00;;;;5052463;28;20228;-87
2022/09/06 06:24:27;;;;;;;7.47;6.77;;;19.90;79.00;20.50;96813.00;;;;5052445;28;20291;-87
2022/09/06 06:26:54;;;;;;;6.50;5.97;;;19.90;79.10;20.60;96805.00;;;;5052503;28;20271;-88
2022/09/06 06:29:21;;;;;;;7.40;6.70;;;20.00;79.00;20.60;96800.00;;;;5052574;28;20709;-86
2022/09/06 06:31:49;;;;;;;6.53;6.00;;;20.10;79.20;20.80;96796.00;;;;5052240;28;20244;-88
2022/09/06 06:34:20;;;;;;;6.00;5.50;;;20.10;79.30;20.80;96787.00;;;;5052050;28;20190;-87
2022/09/06 06:36:48;;;;;;;7.43;5.03;;;20.20;79.40;21.00;96790.00;;;;5052254;28;20195;-87
2022/09/06 06:39:15;;;;;;;5.77;4.93;;;20.30;79.30;21.00;96791.00;;;;5052336;28;20257;-87
2022/09/06 06:41:42;;;;;;;5.07;4.60;;;20.40;79.20;21.10;96794.00;;;;5052504;28;20278;-87
2022/09/06 06:44:09;;;;;;;5.70;5.00;;;20.50;79.10;21.20;96802.00;;;;5052200;28;20268;-88
2022/09/06 06:46:40;;;;;;;5.00;4.57;;;20.50;79.00;21.30;96796.00;;;;5051741;28;20225;-87
2022/09/06 06:49:07;;;;;;;5.53;5.13;;;20.60;79.10;21.30;96795.00;;;;5052146;28;20197;-87
2022/09/06 06:51:38;;;;;;;5.37;4.97;;;20.70;78.90;21.40;96805.00;;;;5032455;28;20221;-87
2022/09/06 06:54:06;;;;;;;5.17;4.77;;;20.80;78.90;21.50;96801.00;;;;5035118;28;20593;-87
2022/09/06 06:56:36;;;;;;;5.10;4.73;;;20.80;78.80;21.50;96799.00;;;;5050766;28;20279;-87
2022/09/06 06:59:06;;;;;;;5.20;4.63;;;20.90;78.70;21.60;96797.00;;;;5051303;28;20739;-87
2022/09/06 07:01:35;;;;;;;4.73;4.33;;;20.90;78.70;21.70;96800.00;;;;5051228;28;20259;-89
2022/09/06 07:04:04;;;;;;;4.73;4.40;;;21.00;78.70;21.80;96796.00;;;;5051084;28;20297;-87
2022/09/06 07:06:31;;;;;;;4.20;3.90;;;21.10;78.80;21.90;96797.00;;;;5050698;28;20303;-87
2022/09/06 07:09:00;;;;;;;4.33;3.93;;;21.20;78.90;22.00;96797.00;;;;5050945;28;20575;-87
2022/09/06 07:11:27;;;;;;;4.73;4.33;;;21.30;79.00;22.10;96797.00;;;;5050821;28;20263;-87
2022/09/06 07:13:54;;;;;;;4.53;4.13;;;21.40;79.10;22.20;96795.00;;;;5050960;28;20205;-87
2022/09/06 07:16:24;;;;;;;4.50;4.20;;;21.50;79.20;22.40;96794.00;;;;5051283;28;20650;-88
2022/09/06 07:18:52;;;;;;;4.73;4.33;;;21.60;79.10;22.60;96796.00;;;;5052341;28;20270;-88
2022/09/06 07:21:25;;;;;;;4.10;3.80;;;21.70;78.90;22.70;96791.00;;;;5053709;28;20258;-87
2022/09/06 07:23:52;;;;;;;4.00;3.70;;;21.90;78.80;22.90;96799.00;;;;5055956;28;20189;-89
2022/09/06 07:26:24;;;;;;;4.60;3.27;;;22.00;78.50;23.00;96798.00;;;;5054082;28;20603;-88
2022/09/06 07:28:52;;;;;;;3.70;3.43;;;22.20;78.10;23.10;96790.00;;;;5056266;28;20267;-87
2022/09/06 07:31:20;;;;;;;3.10;2.90;;;22.30;78.10;23.30;96798.00;;;;5055393;28;20224;-87
2022/09/06 07:33:47;;;;;;;3.20;3.00;;;22.40;77.90;23.40;96797.00;;;;5057527;28;20208;-87
2022/09/06 07:36:14;;;;;;;3.40;3.10;;;22.50;77.40;23.50;96798.00;;;;5055678;28;20284;-87
2022/09/06 07:38:42;;;;;;;3.10;2.90;;;22.60;77.20;23.60;96801.00;;;;5056119;28;20551;-87
2022/09/06 07:41:10;;;;;;;2.77;2.50;;;22.70;77.00;23.70;96805.00;;;;5055130;28;20229;-87
2022/09/06 07:43:39;;;;;;;4.63;2.60;;;22.80;76.40;23.80;96800.00;;;;5055839;28;20876;-87
2022/09/06 07:46:09;;;;;;;3.13;2.27;;;22.90;76.40;24.00;96793.00;;;;5055263;28;20229;-88
2022/09/06 07:48:40;;;;;;;2.57;2.37;;;23.10;76.20;24.10;96797.00;;;;5056004;28;20231;-88
2022/09/06 07:51:10;;;;;;;2.43;2.23;;;23.20;75.60;24.20;96815.00;;;;5047694;28;20227;-87
2022/09/06 07:53:39;;;;;;;2.73;2.33;;;23.30;75.30;24.20;96803.00;;;;5055754;28;20280;-88
2022/09/06 07:56:10;;;;;;;2.40;2.20;;;23.40;74.80;24.30;96793.00;;;;5054738;28;20279;-87
2022/09/06 07:58:40;;;;;;;2.47;2.27;;;23.40;74.70;24.40;96798.00;;;;5055658;28;20269;-88
2022/09/06 08:01:19;;;;;;;2.20;2.00;;;23.50;74.20;24.50;96819.00;;;;5055445;28;20227;-87
2022/09/06 08:03:47;;;;;;;2.43;1.90;;;23.60;73.50;24.60;96824.00;;;;5055620;28;20269;-89
2022/09/06 08:06:15;;;;;;;1.97;1.63;;;23.70;73.80;24.70;96830.00;;;;5054955;28;20223;-87
2022/09/06 08:08:42;;;;;;;4.77;1.90;;;23.80;73.60;24.80;96819.00;;;;5055374;28;20203;-87
2022/09/06 08:11:10;;;;;;;2.27;2.07;;;23.90;73.60;24.90;96824.00;;;;5037076;28;20236;-87
2022/09/06 08:13:39;;;;;;;1.70;1.47;;;24.00;73.30;25.00;96828.00;;;;5036718;28;20659;-87
2022/09/06 08:16:08;;;;;;;1.73;1.63;;;24.10;73.00;25.10;96825.00;;;;5054788;28;20290;-88
2022/09/06 08:18:37;;;;;;;1.83;1.70;;;24.10;72.40;25.20;96823.00;;;;5056409;28;20207;-89
2022/09/06 08:21:10;;;;;;;2.23;1.57;;;24.20;72.30;25.30;96820.00;;;;5057549;28;20283;-89
2022/09/06 08:23:38;;;;;;;3.17;2.03;;;24.30;71.90;25.50;96802.00;;;;5056293;28;20207;-88
2022/09/06 08:26:06;;;;;;;1.60;1.43;;;24.40;72.40;25.60;96815.00;;;;5056334;28;20224;-89
2022/09/06 08:28:33;;;;;;;1.53;1.43;;;24.60;72.00;25.80;96803.00;;;;5056886;28;20235;-89
2022/09/06 08:31:10;;;;;;;3.63;1.63;;;24.70;71.40;25.90;96816.00;;;;5056764;28;20275;-89
2022/09/06 08:33:37;;;;;;;1.30;1.20;;;24.80;70.10;25.90;96811.00;;;;5055255;28;20631;-88
2022/09/06 08:36:06;;;;;;;1.90;1.40;;;24.90;70.00;26.00;96800.00;;;;5055647;28;20743;-88
2022/09/06 08:38:34;;;;;;;1.50;1.40;;;25.00;69.30;26.00;96805.00;;;;5055775;28;20231;-87
2022/09/06 08:41:11;;;;;;;2.00;1.33;;;25.10;69.80;26.00;96806.00;;;;5056618;28;20225;-88
2022/09/06 08:43:39;;;;;;;1.87;1.30;;;25.10;69.00;26.00;96800.00;;;;5056922;28;20223;-89
2022/09/06 08:46:11;;;;;;;2.87;1.40;;;25.20;68.90;26.10;96810.00;;;;5055834;28;20299;-87
2022/09/06 08:48:38;;;;;;;4.33;1.60;;;25.20;68.80;26.10;96796.00;;;;5056238;28;20209;-88
2022/09/06 08:51:50;;;;;;;1.60;1.50;;;25.20;69.40;26.20;96804.00;;;;5056118;28;20283;-88
2022/09/06 08:54:31;;;;;;;2.00;1.50;;;25.40;67.60;26.30;96793.00;;;;5056999;28;20215;-89
2022/09/06 08:57:09;;;;;;;1.27;1.17;;;25.40;68.30;26.40;96793.00;;;;5056330;28;20694;-88
2022/09/06 08:59:41;;;;;;;1.63;1.40;;;25.50;68.00;26.40;96794.00;;;;5055385;28;20619;-86
2022/09/06 09:02:17;;;;;;;1.57;1.47;;;25.50;67.70;26.50;96797.00;;;;5055256;28;20243;-88
2022/09/06 09:04:51;;;;;;;1.60;1.37;;;25.60;67.00;26.60;96795.00;;;;5056104;28;20275;-88
2022/09/06 09:07:37;;;;;;;1.90;1.20;;;25.60;67.00;26.70;96789.00;;;;5055116;28;20247;-87
2022/09/06 09:10:11;;;;;;;1.87;1.17;;;25.70;67.10;26.80;96791.00;;;;5054882;28;20732;-89
2022/09/06 09:12:47;;;;;;;1.20;1.00;;;25.80;67.50;26.90;96786.00;;;;5055573;28;20250;-89
2022/09/06 09:15:17;;;;;;;1.57;1.10;;;25.90;67.20;27.00;96781.00;;;;5056634;28;20279;-89
2022/09/06 09:17:47;;;;;;;1.33;1.00;;;26.00;67.10;27.00;96782.00;;;;5055866;28;20613;-89
2022/09/06 09:20:14;;;;;;;1.13;1.03;;;26.00;66.40;27.10;96777.00;;;;5054872;28;20294;-88
2022/09/06 09:22:43;;;;;;;1.77;1.27;;;26.10;66.60;27.10;96772.00;;;;5054093;28;20771;-88
2022/09/06 09:25:19;;;;;;;1.50;1.00;;;26.20;66.20;27.20;96763.00;;;;5055088;28;20228;-88
2022/09/06 09:27:49;;;;;;;1.77;1.30;;;26.20;65.50;27.30;96768.00;;;;5055005;28;20177;-89
2022/09/06 09:30:17;;;;;;;1.27;1.17;;;26.30;65.70;27.40;96759.00;;;;5055032;28;20719;-88
2022/09/06 09:32:46;;;;;;;1.03;1.03;;;26.40;66.00;27.40;96755.00;;;;5055118;28;20251;-89
2022/09/06 09:35:23;;;;;;;1.07;1.00;;;26.40;65.40;27.50;96754.00;;;;5054657;28;20197;-88
2022/09/06 09:38:03;;;;;;;1.10;0.90;;;26.50;65.20;27.60;96753.00;;;;5053842;28;20263;-89
2022/09/06 09:40:40;;;;;;;0.87;0.80;;;26.60;63.90;27.60;96755.00;;;;5053887;28;20185;-90
2022/09/06 09:43:21;;;;;;;1.77;0.97;;;26.60;64.30;27.70;96748.00;;;;5053927;28;20693;-89
2022/09/06 09:46:28;;;;;;;2.50;1.30;;;26.70;64.80;27.80;96751.00;;;;5052923;28;20216;-90
2022/09/06 09:49:10;;;;;;;1.17;0.97;;;26.80;64.20;28.00;96747.00;;;;5039759;28;20646;-89
2022/09/06 09:51:39;;;;;;;1.40;1.30;;;26.90;63.80;28.10;96743.00;;;;5053367;28;20235;-90
2022/09/06 09:54:10;;;;;;;1.27;1.00;;;27.00;65.00;28.30;96747.00;;;;5053124;28;20220;-90
2022/09/06 09:56:47;;;;;;;1.40;1.00;;;27.20;64.20;28.50;96741.00;;;;5053551;28;20755;-90
2022/09/06 09:59:23;;;;;;;1.00;0.97;;;27.30;63.30;28.70;96745.00;;;;5052840;28;20797;-89
2022/09/06 10:01:54;;;;;;;1.30;0.80;;;27.50;63.20;28.70;96747.00;;;;5048833;28;20219;-89
2022/09/06 10:04:32;;;;;;;0.90;0.80;;;27.60;63.00;28.80;96751.00;;;;5053086;28;20211;-89
2022/09/06 10:07:12;;;;;;;1.17;0.82;;;27.70;62.80;29.00;96754.00;;;;5052877;28;20286;-89
2022/09/06 10:09:43;;;;;;;2.95;1.30;;;27.80;62.10;29.10;96746.00;;;;5052124;28;20287;-89
2022/09/06 10:12:18;;;;;;;0.80;0.80;;;28.00;62.20;29.30;96742.00;;;;5052813;28;20216;-89
2022/09/06 10:14:48;;;;;;;1.17;1.08;;;28.10;62.30;29.50;96740.00;;;;5054240;28;20181;-90
2022/09/06 10:17:22;;;;;;;1.25;1.10;;;28.30;62.40;29.60;96744.00;;;;5053759;28;20741;-89
2022/09/06 10:19:52;;;;;;;1.45;0.93;;;28.40;62.20;29.80;96742.00;;;;5053907;28;20243;-90
2022/09/06 10:22:30;;;;;;;2.75;1.10;;;28.60;62.70;30.00;96741.00;;;;5053242;28;20243;-89
2022/09/06 10:25:30;;;;;;;1.60;0.90;;;28.80;62.20;30.20;96734.00;;;;5051840;28;20227;-89
2022/09/06 10:28:31;;;;;;;3.50;1.02;;;29.00;61.80;30.40;96744.00;;;;5052590;28;20291;-88
2022/09/06 10:31:52;;;;;;;1.10;0.82;;;29.20;60.80;30.60;96743.00;;;;5052723;28;20235;-89
2022/09/06 10:34:48;;;;;;;0.55;0.55;;;29.40;60.10;30.80;96739.00;;;;5042360;28;20201;-89
2022/09/06 10:37:48;;;;;;;1.60;0.82;;;29.70;58.70;30.80;96748.00;;;;5052362;28;20287;-89
2022/09/06 10:40:29;;;;;;;3.15;1.08;;;29.80;58.50;30.90;96743.00;;;;5040755;28;20227;-89
2022/09/06 10:43:00;;;;;;;1.13;0.90;;;30.00;58.50;31.00;96732.00;;;;5052308;28;20240;-88
2022/09/06 10:45:46;;;;;;;0.70;0.63;;;30.10;58.80;31.00;96729.00;;;;5052044;28;20676;-89
2022/09/06 10:48:21;;;;;;;2.05;1.05;;;30.20;58.40;31.10;96725.00;;;;5094660;22;20209;-81
2022/09/06 10:50:54;;;;;;;0.77;0.77;;;30.30;57.80;31.10;96724.00;;;;5099105;28;20297;-80
2022/09/06 10:53:45;;;;;;;1.05;0.70;;;30.30;57.60;31.10;96725.00;;;;5113195;28;20187;-81
2022/09/06 10:56:19;;;;;;;1.20;1.05;;;30.40;55.90;31.10;96715.00;;;;5107113;28;20261;-80
2022/09/06 10:58:54;;;;;;;0.70;0.57;;;30.40;56.50;31.00;96715.00;;;;5113557;28;20198;-80
2022/09/06 11:01:34;;;;;;;1.05;0.60;;;30.40;55.80;31.00;96717.00;;;;5114393;28;20241;-81
2022/09/06 11:04:05;;;;;;;1.40;0.80;;;30.30;55.90;30.90;96722.00;;;;5111763;28;20605;-80
2022/09/06 11:06:43;;;;;;;0.80;0.80;;;30.30;55.70;30.80;96714.00;;;;5114114;28;20218;-79
2022/09/06 11:09:21;;;;;;;2.88;0.80;;;30.20;55.20;30.70;96707.00;;;;5094214;28;20214;-80
2022/09/06 11:12:02;;;;;;;0.63;0.60;;;30.10;55.70;30.70;96715.00;;;;5094579;28;20233;-81
2022/09/06 11:14:30;;;;;;;1.65;0.70;;;30.10;55.30;30.60;96706.00;;;;5112181;28;20224;-81
2022/09/06 11:17:05;;;;;;;1.27;0.77;;;30.00;55.50;30.50;96707.00;;;;5108244;28;20214;-81